# Tabular Observed and Forecast Hydrograph Information
#
# Location: Bear Creek - McKee Road (MEEC1)
#
# File Generation Time: 05/09/2026 at 07:47 AM PDT
# Data Interval: 1 Hour
#
# Most Recent Date & Time of Maximum Observed: 05/08/2026 at 02:00 AM PDT
# Maximum Observed Stage: 6.20 Feet
# Maximum Observed Flow: 229 cfs
#
# Earliest Date & Time of Maximum Forecast: 05/09/2026 at 08:00 AM PDT
# Maximum Forecast Stage: 6.09 Feet
# Maximum Forecast Flow: 210 cfs
#
# OBSERVED
#
# Date & Time (Local) Stage (Feet) Flow (cfs) Trend Observed Status
# ---------------------------------------------------------------------------------
05/04/2026 07 AM PDT 6.06 205 Normal
05/04/2026 08 AM PDT 6.05 204 - Normal
05/04/2026 09 AM PDT 6.06 205 + Normal
05/04/2026 10 AM PDT 6.02 200 - Normal
05/04/2026 11 AM PDT 6.01 198 - Normal
05/04/2026 12 PM PDT 5.99 195 - Normal
05/04/2026 01 PM PDT 5.98 193 - Normal
05/04/2026 02 PM PDT 5.99 195 + Normal
05/04/2026 03 PM PDT 5.98 193 - Normal
05/04/2026 04 PM PDT 5.98 193 0 Normal
05/04/2026 05 PM PDT 6.00 197 + Normal
05/04/2026 06 PM PDT 5.99 195 - Normal
05/04/2026 07 PM PDT 5.96 189 - Normal
05/04/2026 08 PM PDT 5.98 193 + Normal
05/04/2026 09 PM PDT 6.00 197 + Normal
05/04/2026 10 PM PDT 5.97 191 - Normal
05/04/2026 11 PM PDT 5.97 191 0 Normal
05/05/2026 12 AM PDT 6.00 197 + Normal
05/05/2026 01 AM PDT 5.98 193 - Normal
05/05/2026 02 AM PDT 5.98 193 0 Normal
05/05/2026 03 AM PDT 5.98 193 0 Normal
05/05/2026 04 AM PDT 5.99 195 + Normal
05/05/2026 05 AM PDT 5.97 191 - Normal
05/05/2026 06 AM PDT 6.00 197 + Normal
05/05/2026 07 AM PDT 6.02 200 + Normal
05/05/2026 08 AM PDT 6.03 201 + Normal
05/05/2026 09 AM PDT 6.02 200 - Normal
05/05/2026 10 AM PDT 6.02 200 0 Normal
05/05/2026 11 AM PDT 6.02 200 0 Normal
05/05/2026 12 PM PDT 6.03 201 + Normal
05/05/2026 01 PM PDT 6.02 200 - Normal
05/05/2026 02 PM PDT 6.02 200 0 Normal
05/05/2026 03 PM PDT 6.01 198 - Normal
05/05/2026 04 PM PDT 6.02 200 + Normal
05/05/2026 05 PM PDT 6.01 198 - Normal
05/05/2026 06 PM PDT 5.98 193 - Normal
05/05/2026 07 PM PDT 6.00 197 + Normal
05/05/2026 08 PM PDT 6.05 204 + Normal
05/05/2026 09 PM PDT 6.06 205 + Normal
05/05/2026 10 PM PDT 6.08 208 + Normal
05/05/2026 11 PM PDT 6.09 210 + Normal
05/06/2026 12 AM PDT 6.08 208 - Normal
05/06/2026 01 AM PDT 6.08 208 0 Normal
05/06/2026 02 AM PDT 6.07 207 - Normal
05/06/2026 03 AM PDT 6.08 208 + Normal
05/06/2026 04 AM PDT 6.07 207 - Normal
05/06/2026 05 AM PDT 6.07 207 0 Normal
05/06/2026 06 AM PDT 6.08 208 + Normal
05/06/2026 07 AM PDT 6.05 204 - Normal
05/06/2026 08 AM PDT 6.00 197 - Normal
05/06/2026 09 AM PDT 6.00 197 0 Normal
05/06/2026 10 AM PDT 6.00 197 0 Normal
05/06/2026 11 AM PDT 6.01 198 + Normal
05/06/2026 12 PM PDT 6.01 198 0 Normal
05/06/2026 01 PM PDT 6.00 197 - Normal
05/06/2026 02 PM PDT 6.01 198 + Normal
05/06/2026 03 PM PDT 6.00 197 - Normal
05/06/2026 04 PM PDT 6.01 198 + Normal
05/06/2026 05 PM PDT 6.05 204 + Normal
05/06/2026 06 PM PDT 6.02 200 - Normal
05/06/2026 07 PM PDT 6.03 201 + Normal
05/06/2026 08 PM PDT 6.02 200 - Normal
05/06/2026 09 PM PDT 6.03 201 + Normal
05/06/2026 10 PM PDT 6.04 203 + Normal
05/06/2026 11 PM PDT 6.03 201 - Normal
05/07/2026 12 AM PDT 6.03 201 0 Normal
05/07/2026 01 AM PDT 6.01 198 - Normal
05/07/2026 02 AM PDT 5.99 195 - Normal
05/07/2026 03 AM PDT 6.01 198 + Normal
05/07/2026 04 AM PDT 6.03 201 + Normal
05/07/2026 05 AM PDT 6.03 201 0 Normal
05/07/2026 06 AM PDT 6.04 203 + Normal
05/07/2026 07 AM PDT 6.00 197 - Normal
05/07/2026 08 AM PDT 6.01 198 + Normal
05/07/2026 09 AM PDT 5.98 193 - Normal
05/07/2026 10 AM PDT 5.98 193 0 Normal
05/07/2026 11 AM PDT 5.99 195 + Normal
05/07/2026 12 PM PDT 5.99 195 0 Normal
05/07/2026 01 PM PDT 6.00 197 + Normal
05/07/2026 02 PM PDT 6.00 197 0 Normal
05/07/2026 03 PM PDT 6.00 197 0 Normal
05/07/2026 04 PM PDT 6.02 200 + Normal
05/07/2026 05 PM PDT 6.05 204 + Normal
05/07/2026 06 PM PDT 6.08 208 + Normal
05/07/2026 07 PM PDT 6.08 208 0 Normal
05/07/2026 08 PM PDT 6.14 218 + Normal
05/07/2026 09 PM PDT 6.17 223 + Normal
05/07/2026 10 PM PDT 6.15 220 - Normal
05/07/2026 11 PM PDT 6.15 220 0 Normal
05/08/2026 12 AM PDT 6.15 220 0 Normal
05/08/2026 01 AM PDT 6.17 223 + Normal
05/08/2026 02 AM PDT 6.20 229 + Normal
05/08/2026 03 AM PDT 6.17 223 - Normal
05/08/2026 04 AM PDT 6.16 222 - Normal
05/08/2026 05 AM PDT 6.18 225 + Normal
05/08/2026 06 AM PDT 6.17 223 - Normal
05/08/2026 07 AM PDT 6.15 220 - Normal
05/08/2026 08 AM PDT 6.13 216 - Normal
05/08/2026 09 AM PDT 6.06 205 - Normal
05/08/2026 10 AM PDT 6.06 205 0 Normal
05/08/2026 11 AM PDT 6.02 200 - Normal
05/08/2026 12 PM PDT 6.03 201 + Normal
05/08/2026 01 PM PDT 6.07 207 + Normal
05/08/2026 02 PM PDT 6.07 207 0 Normal
05/08/2026 03 PM PDT 6.05 204 - Normal
05/08/2026 04 PM PDT 6.08 208 + Normal
05/08/2026 05 PM PDT 6.14 218 + Normal
05/08/2026 06 PM PDT 6.13 216 - Normal
05/08/2026 07 PM PDT 6.08 208 - Normal
05/08/2026 08 PM PDT 6.07 207 - Normal
05/08/2026 09 PM PDT 6.07 207 0 Normal
05/08/2026 10 PM PDT 6.07 207 0 Normal
05/08/2026 11 PM PDT 6.07 207 0 Normal
05/09/2026 12 AM PDT 6.06 205 - Normal
05/09/2026 01 AM PDT 6.05 204 - Normal
05/09/2026 02 AM PDT 6.05 204 0 Normal
05/09/2026 03 AM PDT 6.09 210 + Normal
05/09/2026 04 AM PDT 6.08 208 - Normal
05/09/2026 05 AM PDT 6.09 210 + Normal
05/09/2026 06 AM PDT 6.09 210 0 Normal
05/09/2026 07 AM PDT 6.09 210 0 Normal
#
# FORECAST
#
# Date & Time (Local) Stage (Feet) Flow (cfs) Trend Forecast Status
# ---------------------------------------------------------------------------------
05/09/2026 08 AM PDT 6.09 210 Normal
05/09/2026 09 AM PDT 6.09 210 0 Normal
05/09/2026 10 AM PDT 6.09 210 0 Normal
05/09/2026 11 AM PDT 6.09 210 0 Normal
05/09/2026 12 PM PDT 6.09 210 0 Normal
05/09/2026 01 PM PDT 6.09 210 0 Normal
05/09/2026 02 PM PDT 6.09 210 0 Normal
05/09/2026 03 PM PDT 6.08 208 - Normal
05/09/2026 04 PM PDT 6.08 208 0 Normal
05/09/2026 05 PM PDT 6.08 208 0 Normal
05/09/2026 06 PM PDT 6.08 208 0 Normal
05/09/2026 07 PM PDT 6.08 208 0 Normal
05/09/2026 08 PM PDT 6.08 208 0 Normal
05/09/2026 09 PM PDT 6.08 208 0 Normal
05/09/2026 10 PM PDT 6.08 208 0 Normal
05/09/2026 11 PM PDT 6.08 208 0 Normal
05/10/2026 12 AM PDT 6.08 208 0 Normal
05/10/2026 01 AM PDT 6.08 208 0 Normal
05/10/2026 02 AM PDT 6.08 208 0 Normal
05/10/2026 03 AM PDT 6.08 208 0 Normal
05/10/2026 04 AM PDT 6.08 208 0 Normal
05/10/2026 05 AM PDT 6.08 208 0 Normal
05/10/2026 06 AM PDT 6.08 208 0 Normal
05/10/2026 07 AM PDT 6.08 208 0 Normal
05/10/2026 08 AM PDT 6.08 208 0 Normal
05/10/2026 09 AM PDT 6.08 208 0 Normal
05/10/2026 10 AM PDT 6.08 208 0 Normal
05/10/2026 11 AM PDT 6.08 208 0 Normal
05/10/2026 12 PM PDT 6.07 207 - Normal
05/10/2026 01 PM PDT 6.07 207 0 Normal
05/10/2026 02 PM PDT 6.07 207 0 Normal
05/10/2026 03 PM PDT 6.07 207 0 Normal
05/10/2026 04 PM PDT 6.07 207 0 Normal
05/10/2026 05 PM PDT 6.07 207 0 Normal
05/10/2026 06 PM PDT 6.07 207 0 Normal
05/10/2026 07 PM PDT 6.07 207 0 Normal
05/10/2026 08 PM PDT 6.07 207 0 Normal
05/10/2026 09 PM PDT 6.07 207 0 Normal
05/10/2026 10 PM PDT 6.07 207 0 Normal
05/10/2026 11 PM PDT 6.07 207 0 Normal
05/11/2026 12 AM PDT 6.07 207 0 Normal
05/11/2026 01 AM PDT 6.07 207 0 Normal
05/11/2026 02 AM PDT 6.07 207 0 Normal
05/11/2026 03 AM PDT 6.07 207 0 Normal
05/11/2026 04 AM PDT 6.07 207 0 Normal
05/11/2026 05 AM PDT 6.07 207 0 Normal
05/11/2026 06 AM PDT 6.07 207 0 Normal
05/11/2026 07 AM PDT 6.06 205 - Normal
05/11/2026 08 AM PDT 6.06 205 0 Normal
05/11/2026 09 AM PDT 6.06 205 0 Normal
05/11/2026 10 AM PDT 6.06 205 0 Normal
05/11/2026 11 AM PDT 6.06 205 0 Normal
05/11/2026 12 PM PDT 6.06 205 0 Normal
05/11/2026 01 PM PDT 6.06 205 0 Normal
05/11/2026 02 PM PDT 6.06 205 0 Normal
05/11/2026 03 PM PDT 6.06 205 0 Normal
05/11/2026 04 PM PDT 6.06 205 0 Normal
05/11/2026 05 PM PDT 6.06 205 0 Normal
05/11/2026 06 PM PDT 6.06 205 0 Normal
05/11/2026 07 PM PDT 6.06 205 0 Normal
05/11/2026 08 PM PDT 6.06 205 0 Normal
05/11/2026 09 PM PDT 6.06 205 0 Normal
05/11/2026 10 PM PDT 6.06 205 0 Normal
05/11/2026 11 PM PDT 6.06 205 0 Normal
05/12/2026 12 AM PDT 6.05 204 - Normal
05/12/2026 01 AM PDT 6.05 204 0 Normal
05/12/2026 02 AM PDT 6.05 204 0 Normal
05/12/2026 03 AM PDT 6.05 204 0 Normal
05/12/2026 04 AM PDT 6.05 204 0 Normal
05/12/2026 05 AM PDT 6.05 204 0 Normal
05/12/2026 06 AM PDT 6.05 204 0 Normal
05/12/2026 07 AM PDT 6.05 204 0 Normal
05/12/2026 08 AM PDT 6.05 204 0 Normal
05/12/2026 09 AM PDT 6.05 204 0 Normal
05/12/2026 10 AM PDT 6.05 204 0 Normal
05/12/2026 11 AM PDT 6.05 204 0 Normal
05/12/2026 12 PM PDT 6.05 204 0 Normal
05/12/2026 01 PM PDT 6.05 204 0 Normal
05/12/2026 02 PM PDT 6.05 204 0 Normal
05/12/2026 03 PM PDT 6.05 204 0 Normal
05/12/2026 04 PM PDT 6.05 204 0 Normal
05/12/2026 05 PM PDT 6.05 204 0 Normal
05/12/2026 06 PM PDT 6.05 204 0 Normal
05/12/2026 07 PM PDT 6.04 203 - Normal
05/12/2026 08 PM PDT 6.04 203 0 Normal
05/12/2026 09 PM PDT 6.04 203 0 Normal
05/12/2026 10 PM PDT 6.04 203 0 Normal
05/12/2026 11 PM PDT 6.04 203 0 Normal
05/13/2026 12 AM PDT 6.04 203 0 Normal
05/13/2026 01 AM PDT 6.04 203 0 Normal
05/13/2026 02 AM PDT 6.04 203 0 Normal
05/13/2026 03 AM PDT 6.04 203 0 Normal
05/13/2026 04 AM PDT 6.04 203 0 Normal
05/13/2026 05 AM PDT 6.04 203 0 Normal
05/13/2026 06 AM PDT 6.04 203 0 Normal
05/13/2026 07 AM PDT 6.04 203 0 Normal
05/13/2026 08 AM PDT 6.04 203 0 Normal
05/13/2026 09 AM PDT 6.04 203 0 Normal
05/13/2026 10 AM PDT 6.04 203 0 Normal
05/13/2026 11 AM PDT 6.04 203 0 Normal
05/13/2026 12 PM PDT 6.04 203 0 Normal
05/13/2026 01 PM PDT 6.04 203 0 Normal
05/13/2026 02 PM PDT 6.04 203 0 Normal
05/13/2026 03 PM PDT 6.04 203 0 Normal
05/13/2026 04 PM PDT 6.03 201 - Normal
05/13/2026 05 PM PDT 6.03 201 0 Normal
05/13/2026 06 PM PDT 6.03 201 0 Normal
05/13/2026 07 PM PDT 6.03 201 0 Normal
05/13/2026 08 PM PDT 6.03 201 0 Normal
05/13/2026 09 PM PDT 6.03 201 0 Normal
05/13/2026 10 PM PDT 6.03 201 0 Normal
05/13/2026 11 PM PDT 6.03 201 0 Normal
05/14/2026 12 AM PDT 6.03 201 0 Normal
05/14/2026 01 AM PDT 6.03 201 0 Normal
05/14/2026 02 AM PDT 6.03 201 0 Normal
05/14/2026 03 AM PDT 6.03 201 0 Normal
05/14/2026 04 AM PDT 6.03 201 0 Normal
05/14/2026 05 AM PDT 6.03 201 0 Normal
#
# NOTE 1: Stages are rounded to the nearest hundredth (.01) of a foot.
# NOTE 2: Flows are rounded to the nearest (1) cfs.
# NOTE 3: Trends are determined using hourly change in unrounded stage and flow.
# NOTE 4: Maximum Values are determined using unrounded stage and flow.
|